Time;durP1;ratioP1;P1;durP2;ratioP2;P2;SDS_P1;SDS_P2;PMS_P1;PMS_P2;Temp;Humidity;BMP_temperature;BMP_pressure;BME280_temperature;BME280_humidity;BME280_pressure;Samples;Min_cycle;Max_cycle;Signal;HPM_P1;HPM_P2
2022/01/18 00:00:23;;;;;;;;;;;22.50;46.60;;;;;;5083580;28;20397;-70
2022/01/18 00:02:49;;;;;;;;;;;22.50;46.60;;;;;;5081303;28;20025;-69
2022/01/18 00:05:15;;;;;;;;;;;22.50;46.70;;;;;;5087244;28;20008;-72
2022/01/18 00:07:41;;;;;;;;;;;22.50;46.70;;;;;;5086799;28;20023;-70
2022/01/18 00:10:07;;;;;;;;;;;22.40;46.60;;;;;;5082470;28;19974;-71
2022/01/18 00:20:24;;;;;;;;;;;22.30;46.70;;;;;;5083290;28;19920;-71
2022/01/18 00:22:50;;;;;;;;;;;22.30;46.80;;;;;;5084544;28;20271;-71
2022/01/18 00:25:17;;;;;;;;;;;22.30;46.70;;;;;;5084519;28;19928;-71
2022/01/18 00:27:42;;;;;;;;;;;22.30;46.80;;;;;;5084492;28;20323;-70
2022/01/18 00:30:30;;;;;;;;;;;22.30;46.90;;;;;;5082834;28;19918;-71
2022/01/18 00:33:06;;;;;;;;;;;22.30;46.80;;;;;;5079771;28;19926;-68
2022/01/18 00:35:34;;;;;;;;;;;22.20;46.80;;;;;;5084958;28;19916;-70
2022/01/18 00:38:00;;;;;;;;;;;22.20;46.90;;;;;;5086203;28;19912;-71
2022/01/18 00:40:26;;;;;;;;;;;22.20;46.90;;;;;;5084464;28;19919;-70
2022/01/18 00:42:51;;;;;;;;;;;22.20;46.90;;;;;;5081852;28;19920;-72
2022/01/18 00:45:17;;;;;;;;;;;22.10;46.90;;;;;;5081044;28;19916;-69
2022/01/18 00:47:42;;;;;;;;;;;22.10;46.90;;;;;;5081950;28;19941;-71
2022/01/18 00:50:09;;;;;;;;;;;22.10;47.00;;;;;;5085879;28;20002;-72
2022/01/18 00:52:40;;;;;;;;;;;22.10;47.00;;;;;;5085837;28;20445;-72
2022/01/18 00:55:05;;;;;;;;;;;22.10;47.00;;;;;;5080037;28;19916;-72
2022/01/18 00:57:31;;;;;;;;;;;22.00;47.00;;;;;;5081738;28;19926;-69
2022/01/18 00:59:56;;;;;;;;;;;22.00;47.00;;;;;;5082861;28;19920;-71
2022/01/18 01:02:22;;;;;;;;;;;22.00;47.10;;;;;;5080198;28;19912;-71
2022/01/18 01:04:48;;;;;;;;;;;22.00;47.10;;;;;;5084628;28;19916;-71
2022/01/18 01:07:21;;;;;;;;;;;21.90;47.10;;;;;;5083726;28;19958;-70
2022/01/18 01:09:47;;;;;;;;;;;22.00;47.10;;;;;;5082194;28;19912;-71
2022/01/18 01:12:14;;;;;;;;;;;21.90;47.10;;;;;;5082100;28;20331;-70
2022/01/18 01:14:40;;;;;;;;;;;21.90;47.10;;;;;;5083134;28;20294;-69
2022/01/18 01:35:50;;;;;;;;;;;21.80;47.30;;;;;;5083466;28;19912;-71
2022/01/18 01:46:37;;;;;;;;;;;21.70;47.30;;;;;;5060650;28;20042;-72
2022/01/18 01:49:06;;;;;;;;;;;21.70;47.40;;;;;;5085643;28;19912;-69
2022/01/18 01:51:32;;;;;;;;;;;21.70;47.40;;;;;;5085091;28;20423;-72
2022/01/18 01:54:03;;;;;;;;;;;21.60;47.40;;;;;;5082555;28;19920;-72
2022/01/18 01:56:29;;;;;;;;;;;21.70;47.50;;;;;;5082315;28;19918;-71
2022/01/18 01:58:55;;;;;;;;;;;21.60;47.40;;;;;;5085218;28;19916;-70
2022/01/18 02:01:21;;;;;;;;;;;21.60;47.50;;;;;;5084034;28;20423;-70
2022/01/18 02:03:46;;;;;;;;;;;21.60;48.00;;;;;;5083033;28;20003;-71
2022/01/18 02:06:12;;;;;;;;;;;21.60;47.50;;;;;;5083275;28;19951;-71
2022/01/18 02:08:38;;;;;;;;;;;21.50;47.50;;;;;;5084832;28;19916;-72
2022/01/18 02:11:03;;;;;;;;;;;21.50;47.50;;;;;;5083307;28;20280;-72
2022/01/18 02:13:31;;;;;;;;;;;21.60;47.60;;;;;;5081633;28;20242;-71
2022/01/18 02:23:57;;;;;;;;;;;21.50;47.60;;;;;;5083426;28;19978;-71
2022/01/18 02:26:23;;;;;;;;;;;21.50;47.60;;;;;;5085700;28;19924;-69
2022/01/18 02:28:48;;;;;;;;;;;21.50;47.60;;;;;;5084934;28;20617;-71
2022/01/18 02:31:14;;;;;;;;;;;21.40;47.60;;;;;;5086851;28;20012;-71
2022/01/18 02:33:40;;;;;;;;;;;21.50;47.70;;;;;;5087875;28;19966;-72
2022/01/18 02:36:06;;;;;;;;;;;21.40;47.70;;;;;;5087179;28;20355;-71
2022/01/18 02:38:32;;;;;;;;;;;21.40;47.70;;;;;;5082744;28;19981;-72
2022/01/18 02:40:58;;;;;;;;;;;21.40;47.70;;;;;;5087340;28;19912;-71
2022/01/18 02:46:07;;;;;;;;;;;21.30;47.70;;;;;;5085606;28;19923;-71
2022/01/18 02:48:33;;;;;;;;;;;21.30;47.70;;;;;;5082168;28;20376;-71
2022/01/18 02:50:58;;;;;;;;;;;21.30;47.70;;;;;;5085067;28;19999;-69
2022/01/18 02:53:24;;;;;;;;;;;21.30;47.80;;;;;;5083045;28;19912;-72
2022/01/18 02:55:53;;;;;;;;;;;21.30;47.80;;;;;;5096913;28;19958;-71
2022/01/18 02:58:26;;;;;;;;;;;21.30;47.80;;;;;;5084467;28;20500;-70
2022/01/18 03:03:30;;;;;;;;;;;21.30;47.80;;;;;;5085052;28;19947;-71
2022/01/18 03:05:57;;;;;;;;;;;21.30;47.90;;;;;;5091970;28;19963;-69
2022/01/18 03:08:23;;;;;;;;;;;21.30;47.90;;;;;;5083987;28;19948;-72
2022/01/18 03:10:48;;;;;;;;;;;21.30;47.90;;;;;;5086786;28;19971;-71
2022/01/18 03:13:14;;;;;;;;;;;21.30;47.90;;;;;;5084366;28;19916;-72
2022/01/18 03:15:39;;;;;;;;;;;21.20;47.90;;;;;;5088178;28;19973;-71
2022/01/18 03:18:07;;;;;;;;;;;21.20;47.90;;;;;;5087969;28;19927;-70
2022/01/18 03:20:33;;;;;;;;;;;21.20;47.90;;;;;;5082003;28;19927;-71
2022/01/18 03:22:59;;;;;;;;;;;21.20;48.00;;;;;;5082105;28;19920;-71
2022/01/18 03:28:06;;;;;;;;;;;21.20;48.00;;;;;;5084632;28;19981;-71
2022/01/18 03:30:34;;;;;;;;;;;21.10;47.90;;;;;;5086134;28;19968;-72
2022/01/18 03:33:00;;;;;;;;;;;21.20;48.00;;;;;;5087438;28;19916;-70
2022/01/18 03:35:26;;;;;;;;;;;21.20;48.00;;;;;;5084398;28;20003;-72
2022/01/18 03:37:52;;;;;;;;;;;21.10;48.00;;;;;;5087687;28;20490;-72
2022/01/18 03:40:18;;;;;;;;;;;21.20;48.00;;;;;;5086051;28;19961;-70
2022/01/18 03:42:47;;;;;;;;;;;21.10;48.00;;;;;;5085906;28;19912;-71
2022/01/18 03:45:20;;;;;;;;;;;21.10;48.00;;;;;;5081144;28;19917;-72
2022/01/18 03:47:46;;;;;;;;;;;21.10;48.00;;;;;;5084571;28;19919;-71
2022/01/18 03:50:13;;;;;;;;;;;21.10;48.00;;;;;;5085820;28;20073;-70
2022/01/18 03:52:40;;;;;;;;;;;21.10;48.00;;;;;;5082616;28;19913;-70
2022/01/18 03:55:06;;;;;;;;;;;21.10;48.10;;;;;;5084717;28;19912;-71
2022/01/18 03:57:32;;;;;;;;;;;21.10;48.10;;;;;;5085633;28;19916;-70
2022/01/18 03:59:57;;;;;;;;;;;21.10;48.10;;;;;;5086810;28;19938;-71
2022/01/18 04:02:23;;;;;;;;;;;21.10;48.10;;;;;;5085805;28;20603;-71
2022/01/18 04:04:48;;;;;;;;;;;21.10;48.10;;;;;;5083586;28;19923;-72
2022/01/18 04:07:14;;;;;;;;;;;21.10;48.10;;;;;;5087586;28;20033;-71
2022/01/18 04:09:40;;;;;;;;;;;21.10;48.10;;;;;;5085106;28;20315;-71
2022/01/18 04:12:05;;;;;;;;;;;21.00;48.10;;;;;;5085025;28;19912;-71
2022/01/18 04:14:31;;;;;;;;;;;21.00;48.10;;;;;;5086754;28;19919;-71
2022/01/18 04:27:31;;;;;;;;;;;21.00;48.20;;;;;;5085337;28;19923;-71
2022/01/18 04:29:57;;;;;;;;;;;21.00;48.20;;;;;;5099878;28;19939;-71
2022/01/18 04:32:22;;;;;;;;;;;21.00;48.20;;;;;;5085069;28;19916;-72
2022/01/18 04:34:48;;;;;;;;;;;21.00;48.20;;;;;;5085056;28;19952;-71
2022/01/18 04:37:13;;;;;;;;;;;21.00;48.20;;;;;;5083652;28;19935;-72
2022/01/18 04:39:41;;;;;;;;;;;20.90;48.20;;;;;;5078276;28;19920;-72
2022/01/18 04:42:14;;;;;;;;;;;20.90;48.20;;;;;;5082227;28;19912;-72
2022/01/18 04:50:08;;;;;;;;;;;20.90;48.20;;;;;;5082694;28;20345;-70
2022/01/18 04:52:33;;;;;;;;;;;20.90;48.30;;;;;;5085857;28;19920;-72
2022/01/18 04:55:01;;;;;;;;;;;20.90;48.30;;;;;;5083007;28;19961;-72
2022/01/18 05:00:11;;;;;;;;;;;20.90;48.30;;;;;;5082737;28;19930;-72
2022/01/18 05:02:37;;;;;;;;;;;20.90;48.40;;;;;;5081534;28;19912;-71
2022/01/18 05:05:03;;;;;;;;;;;20.90;48.40;;;;;;5086193;28;20382;-70
2022/01/18 05:07:28;;;;;;;;;;;20.90;48.50;;;;;;5081573;28;19919;-71
2022/01/18 05:09:54;;;;;;;;;;;20.90;48.50;;;;;;5082082;28;19938;-69
2022/01/18 05:12:35;;;;;;;;;;;20.80;48.50;;;;;;5084019;28;20328;-71
2022/01/18 05:15:07;;;;;;;;;;;20.90;48.50;;;;;;5082665;28;20072;-71
2022/01/18 05:17:47;;;;;;;;;;;20.90;48.70;;;;;;5084148;28;19916;-71
2022/01/18 05:23:00;;;;;;;;;;;20.80;48.60;;;;;;5084404;28;20703;-71
2022/01/18 05:25:28;;;;;;;;;;;20.80;48.60;;;;;;5077712;28;20018;-72
2022/01/18 05:27:54;;;;;;;;;;;20.80;48.60;;;;;;5084013;28;20011;-71
2022/01/18 05:30:19;;;;;;;;;;;20.80;48.60;;;;;;5082453;28;20091;-71
2022/01/18 05:32:45;;;;;;;;;;;20.80;48.60;;;;;;5085318;28;19959;-72
2022/01/18 05:35:11;;;;;;;;;;;20.80;48.60;;;;;;5083638;28;19912;-72
2022/01/18 05:37:36;;;;;;;;;;;20.80;48.60;;;;;;5082457;28;19912;-70
2022/01/18 05:40:02;;;;;;;;;;;20.80;48.70;;;;;;5082083;28;19962;-70
2022/01/18 05:42:27;;;;;;;;;;;20.80;48.70;;;;;;5084889;28;20388;-69
2022/01/18 05:44:53;;;;;;;;;;;20.80;49.30;;;;;;5083842;28;19959;-70
2022/01/18 05:47:18;;;;;;;;;;;20.80;48.70;;;;;;5081553;28;19916;-71
2022/01/18 05:49:44;;;;;;;;;;;20.70;48.70;;;;;;5083482;28;19916;-70
2022/01/18 05:52:09;;;;;;;;;;;20.70;48.70;;;;;;5080449;28;19912;-71
2022/01/18 05:54:35;;;;;;;;;;;20.70;48.70;;;;;;5078531;28;19920;-71
2022/01/18 05:57:00;;;;;;;;;;;20.70;48.70;;;;;;5082200;28;19916;-72
2022/01/18 05:59:34;;;;;;;;;;;20.80;48.80;;;;;;5083238;28;19912;-71
2022/01/18 06:02:03;;;;;;;;;;;20.70;48.80;;;;;;5082627;28;19912;-71
2022/01/18 06:07:13;;;;;;;;;;;20.70;48.80;;;;;;5086311;28;20482;-71
2022/01/18 06:09:38;;;;;;;;;;;20.70;48.90;;;;;;5086700;28;19916;-71
2022/01/18 06:12:04;;;;;;;;;;;20.70;48.90;;;;;;5082601;28;20380;-71
2022/01/18 06:14:29;;;;;;;;;;;20.70;48.90;;;;;;5086246;28;19955;-71
2022/01/18 06:16:55;;;;;;;;;;;20.70;48.90;;;;;;5086142;28;20022;-71
2022/01/18 06:19:20;;;;;;;;;;;20.70;49.00;;;;;;5086688;28;19959;-71
2022/01/18 06:21:46;;;;;;;;;;;20.70;49.00;;;;;;5089372;28;19916;-71
2022/01/18 06:24:12;;;;;;;;;;;20.70;49.00;;;;;;5087955;28;19916;-70
2022/01/18 06:26:38;;;;;;;;;;;20.70;49.00;;;;;;5084743;28;19916;-72
2022/01/18 06:29:03;;;;;;;;;;;20.70;49.00;;;;;;5087978;28;19927;-71
2022/01/18 06:31:29;;;;;;;;;;;20.70;49.00;;;;;;5083456;28;19916;-71
2022/01/18 06:33:55;;;;;;;;;;;20.70;49.10;;;;;;5083821;28;20665;-71
2022/01/18 06:36:20;;;;;;;;;;;20.60;49.00;;;;;;5081503;28;19912;-69
2022/01/18 06:38:46;;;;;;;;;;;20.70;49.10;;;;;;5083626;28;20335;-74
2022/01/18 06:41:11;;;;;;;;;;;20.70;49.20;;;;;;5085694;28;20321;-73
2022/01/18 06:43:37;;;;;;;;;;;20.70;49.80;;;;;;5088784;28;19942;-68
2022/01/18 06:46:03;;;;;;;;;;;20.70;50.00;;;;;;5088347;28;19916;-67
2022/01/18 06:48:28;;;;;;;;;;;20.60;49.80;;;;;;5083604;28;19912;-71
2022/01/18 06:50:54;;;;;;;;;;;20.70;49.90;;;;;;5087259;28;20335;-69
2022/01/18 06:53:19;;;;;;;;;;;20.60;49.70;;;;;;5082454;28;19916;-69
2022/01/18 06:55:51;;;;;;;;;;;20.70;49.70;;;;;;5081206;28;19995;-71
2022/01/18 06:58:16;;;;;;;;;;;20.70;49.70;;;;;;5083917;28;19912;-70
2022/01/18 07:00:42;;;;;;;;;;;20.60;49.60;;;;;;5084335;28;19913;-70
2022/01/18 07:03:08;;;;;;;;;;;20.70;49.60;;;;;;5083465;28;19912;-69
2022/01/18 07:05:33;;;;;;;;;;;20.70;49.60;;;;;;5087934;28;19916;-71
2022/01/18 07:07:59;;;;;;;;;;;20.60;49.50;;;;;;5084795;28;19917;-69
2022/01/18 07:10:25;;;;;;;;;;;20.60;49.50;;;;;;5085415;28;20042;-68
2022/01/18 07:12:50;;;;;;;;;;;20.60;49.50;;;;;;5081444;28;19966;-68
2022/01/18 07:15:16;;;;;;;;;;;20.60;49.40;;;;;;5083251;28;20415;-69
2022/01/18 07:17:41;;;;;;;;;;;20.60;49.40;;;;;;5083388;28;19916;-71
2022/01/18 07:20:07;;;;;;;;;;;20.60;49.40;;;;;;5082222;28;19912;-69
2022/01/18 07:22:34;;;;;;;;;;;20.60;49.40;;;;;;5086584;28;20408;-67
2022/01/18 07:25:00;;;;;;;;;;;20.60;49.40;;;;;;5081500;28;19931;-68
2022/01/18 07:27:26;;;;;;;;;;;20.60;49.40;;;;;;5089048;28;19912;-69
2022/01/18 07:29:52;;;;;;;;;;;20.60;49.40;;;;;;5083730;28;20279;-70
2022/01/18 07:32:17;;;;;;;;;;;20.60;49.40;;;;;;5085207;28;19912;-69
2022/01/18 07:34:52;;;;;;;;;;;20.60;49.40;;;;;;5087063;28;19928;-67
2022/01/18 07:37:18;;;;;;;;;;;20.60;49.40;;;;;;5085126;28;20006;-70
2022/01/18 07:39:43;;;;;;;;;;;20.60;49.40;;;;;;5081374;28;20019;-68
2022/01/18 07:42:09;;;;;;;;;;;20.60;49.40;;;;;;5083507;28;19955;-71
2022/01/18 07:44:34;;;;;;;;;;;20.60;49.40;;;;;;5084914;28;19924;-67
2022/01/18 07:47:00;;;;;;;;;;;20.60;49.40;;;;;;5086018;28;19961;-67
2022/01/18 07:49:25;;;;;;;;;;;20.50;49.40;;;;;;5085581;28;19912;-68
2022/01/18 07:51:51;;;;;;;;;;;20.60;49.40;;;;;;5086111;28;20567;-70
2022/01/18 07:54:17;;;;;;;;;;;20.60;49.40;;;;;;5087618;28;19934;-69
2022/01/18 07:56:44;;;;;;;;;;;20.60;49.40;;;;;;5083635;28;19912;-70
2022/01/18 07:59:10;;;;;;;;;;;20.60;49.40;;;;;;5085760;28;19953;-68
2022/01/18 08:01:35;;;;;;;;;;;20.50;49.40;;;;;;5087532;28;19916;-69
2022/01/18 08:04:01;;;;;;;;;;;20.50;49.30;;;;;;5086461;28;19912;-70
2022/01/18 08:06:27;;;;;;;;;;;20.50;49.40;;;;;;5085712;28;19920;-67
2022/01/18 08:08:52;;;;;;;;;;;20.50;49.90;;;;;;5085916;28;20343;-68
2022/01/18 08:11:18;;;;;;;;;;;20.50;49.40;;;;;;5085039;28;19958;-68
2022/01/18 08:13:47;;;;;;;;;;;20.50;49.40;;;;;;5087008;28;19908;-70
2022/01/18 08:18:47;;;;;;;;;;;20.50;49.30;;;;;;5084832;28;20003;-68
2022/01/18 08:21:13;;;;;;;;;;;20.50;49.40;;;;;;5082949;28;20008;-71
2022/01/18 08:23:38;;;;;;;;;;;20.50;49.30;;;;;;5086150;28;19920;-69
2022/01/18 08:26:04;;;;;;;;;;;20.50;49.30;;;;;;5084731;28;20348;-69
2022/01/18 08:28:29;;;;;;;;;;;20.50;49.40;;;;;;5084963;28;20203;-71
2022/01/18 08:30:55;;;;;;;;;;;20.50;49.30;;;;;;5079550;28;19931;-70
2022/01/18 08:33:20;;;;;;;;;;;20.50;49.40;;;;;;5083459;28;20143;-69
2022/01/18 08:35:46;;;;;;;;;;;20.50;49.40;;;;;;5084558;28;19908;-69
2022/01/18 08:38:11;;;;;;;;;;;20.50;49.30;;;;;;5085672;28;19920;-69
2022/01/18 08:40:37;;;;;;;;;;;20.50;49.30;;;;;;5077204;28;20062;-69
2022/01/18 08:43:02;;;;;;;;;;;20.50;49.30;;;;;;5078813;28;20279;-69
2022/01/18 08:45:28;;;;;;;;;;;20.50;49.30;;;;;;5086107;28;19920;-69
2022/01/18 08:47:53;;;;;;;;;;;20.50;49.30;;;;;;5087065;28;19969;-70
2022/01/18 08:50:19;;;;;;;;;;;20.50;49.30;;;;;;5087319;28;19959;-67
2022/01/18 08:52:48;;;;;;;;;;;20.50;49.40;;;;;;5086291;28;20356;-69
2022/01/18 08:55:14;;;;;;;;;;;20.50;49.40;;;;;;5080638;28;20076;-67
2022/01/18 08:57:39;;;;;;;;;;;20.50;49.40;;;;;;5085930;28;19994;-69
2022/01/18 09:00:08;;;;;;;;;;;20.40;49.30;;;;;;5079143;28;19916;-69
2022/01/18 09:02:33;;;;;;;;;;;20.50;49.90;;;;;;5082232;28;19908;-70
2022/01/18 09:04:59;;;;;;;;;;;20.50;49.30;;;;;;5086641;28;20015;-67
2022/01/18 09:07:24;;;;;;;;;;;20.40;49.30;;;;;;5084446;28;19916;-69
2022/01/18 09:09:55;;;;;;;;;;;20.40;49.30;;;;;;5080777;28;19908;-69
2022/01/18 09:12:20;;;;;;;;;;;20.40;49.30;;;;;;5084350;28;19912;-71
2022/01/18 09:14:46;;;;;;;;;;;20.40;49.30;;;;;;5084857;28;19908;-68
2022/01/18 09:17:12;;;;;;;;;;;20.40;49.30;;;;;;5084215;28;20964;-69
2022/01/18 09:19:38;;;;;;;;;;;20.40;49.30;;;;;;5085360;28;19912;-69
2022/01/18 09:22:03;;;;;;;;;;;20.40;49.30;;;;;;5080946;28;19992;-69
2022/01/18 09:24:29;;;;;;;;;;;20.40;49.40;;;;;;5085162;28;19923;-69
2022/01/18 09:26:55;;;;;;;;;;;20.40;49.40;;;;;;5082694;28;20459;-70
2022/01/18 09:29:21;;;;;;;;;;;20.40;49.40;;;;;;5083048;28;19999;-69
2022/01/18 09:31:46;;;;;;;;;;;20.40;49.40;;;;;;5084631;28;20037;-68
2022/01/18 09:34:12;;;;;;;;;;;20.40;49.40;;;;;;5083231;28;19965;-68
2022/01/18 09:36:37;;;;;;;;;;;20.40;49.40;;;;;;5086046;28;19912;-68
2022/01/18 09:39:03;;;;;;;;;;;20.40;49.40;;;;;;5085340;28;19916;-69
2022/01/18 09:41:34;;;;;;;;;;;20.40;49.40;;;;;;5078837;28;20412;-70
2022/01/18 09:43:59;;;;;;;;;;;20.40;49.40;;;;;;5084559;28;20785;-71
2022/01/18 09:46:26;;;;;;;;;;;20.40;49.40;;;;;;5081497;28;19996;-70
2022/01/18 09:48:52;;;;;;;;;;;20.30;49.30;;;;;;5083368;28;20015;-68
2022/01/18 09:51:18;;;;;;;;;;;20.30;49.30;;;;;;5082030;28;19917;-70
2022/01/18 09:53:43;;;;;;;;;;;20.40;49.40;;;;;;5086281;28;19989;-70
2022/01/18 09:56:09;;;;;;;;;;;20.30;49.40;;;;;;5082408;28;20288;-69
2022/01/18 09:58:34;;;;;;;;;;;20.30;49.40;;;;;;5084861;28;19923;-68
2022/01/18 10:01:00;;;;;;;;;;;20.30;49.40;;;;;;5086746;28;20364;-70
2022/01/18 10:03:35;;;;;;;;;;;20.40;49.50;;;;;;5084215;28;20002;-70
2022/01/18 10:06:02;;;;;;;;;;;20.30;49.40;;;;;;5080794;28;19916;-69
2022/01/18 10:08:28;;;;;;;;;;;20.30;49.40;;;;;;5079031;28;19972;-69
2022/01/18 10:10:54;;;;;;;;;;;20.30;49.40;;;;;;5082420;28;19920;-70
2022/01/18 10:13:30;;;;;;;;;;;20.30;49.40;;;;;;5082167;28;20032;-69
2022/01/18 10:16:03;;;;;;;;;;;20.30;49.40;;;;;;5083058;28;19915;-70
2022/01/18 10:18:53;;;;;;;;;;;20.30;49.50;;;;;;5087053;28;20379;-69
2022/01/18 10:21:29;;;;;;;;;;;20.30;50.00;;;;;;5075636;28;19931;-70
2022/01/18 10:24:10;;;;;;;;;;;20.30;49.50;;;;;;5078037;28;19917;-69
2022/01/18 10:26:38;;;;;;;;;;;20.30;49.50;;;;;;5082769;28;20339;-69
2022/01/18 10:29:05;;;;;;;;;;;20.30;49.50;;;;;;5082783;28;19925;-70
2022/01/18 10:32:20;;;;;;;;;;;20.30;49.50;;;;;;5084399;28;19916;-70
2022/01/18 10:34:40;;;;;;;;;;;20.30;49.50;;;;;;5077327;28;19919;-68
2022/01/18 10:37:19;;;;;;;;;;;20.30;49.50;;;;;;5083426;28;20389;-69
2022/01/18 10:39:50;;;;;;;;;;;20.30;49.60;;;;;;5084512;28;20007;-70
2022/01/18 10:42:18;;;;;;;;;;;20.30;49.50;;;;;;5082380;28;19912;-68
2022/01/18 10:44:46;;;;;;;;;;;20.40;49.60;;;;;;5084981;28;19912;-69
2022/01/18 10:47:11;;;;;;;;;;;20.40;49.60;;;;;;5087853;28;20367;-69
2022/01/18 10:49:44;;;;;;;;;;;20.40;49.60;;;;;;5088659;28;20007;-70
2022/01/18 10:52:13;;;;;;;;;;;20.40;49.60;;;;;;5085558;28;19974;-68
2022/01/18 10:54:46;;;;;;;;;;;20.40;49.60;;;;;;5087584;28;19916;-70
2022/01/18 10:57:13;;;;;;;;;;;20.40;49.70;;;;;;5086047;28;20303;-69
2022/01/18 10:59:40;;;;;;;;;;;20.40;49.60;;;;;;5087456;28;19919;-67
2022/01/18 11:02:08;;;;;;;;;;;20.40;49.70;;;;;;5086746;28;19963;-68
2022/01/18 11:04:34;;;;;;;;;;;20.40;49.70;;;;;;5090387;28;19908;-68
2022/01/18 11:07:01;;;;;;;;;;;20.40;49.70;;;;;;5086051;28;20268;-70
2022/01/18 11:09:26;;;;;;;;;;;20.40;49.70;;;;;;5085815;28;20330;-67
2022/01/18 11:11:52;;;;;;;;;;;20.40;49.70;;;;;;5088382;28;19916;-70
2022/01/18 11:14:20;;;;;;;;;;;20.50;49.70;;;;;;5083943;28;20367;-68
2022/01/18 11:16:46;;;;;;;;;;;20.50;49.70;;;;;;5085122;28;20011;-69
2022/01/18 11:21:48;;;;;;;;;;;20.50;49.80;;;;;;5086607;28;19978;-67
2022/01/18 11:24:17;;;;;;;;;;;20.50;49.80;;;;;;5087649;28;19916;-69
2022/01/18 11:26:44;;;;;;;;;;;20.50;49.70;;;;;;5080291;28;20394;-70
2022/01/18 11:29:12;;;;;;;;;;;20.50;49.70;;;;;;5082831;28;20288;-70
2022/01/18 11:31:37;;;;;;;;;;;20.50;49.80;;;;;;5086884;28;19916;-69
2022/01/18 11:34:05;;;;;;;;;;;20.50;50.30;;;;;;5085347;28;20269;-70
2022/01/18 11:36:33;;;;;;;;;;;20.50;49.70;;;;;;5082219;28;19912;-69
2022/01/18 11:39:05;;;;;;;;;;;20.40;49.70;;;;;;5081030;28;19916;-69
2022/01/18 11:41:34;;;;;;;;;;;20.50;49.70;;;;;;5080568;28;20434;-70
2022/01/18 11:44:11;;;;;;;;;;;20.50;49.70;;;;;;5087242;28;19916;-68
2022/01/18 11:46:40;;;;;;;;;;;20.50;49.70;;;;;;5079170;28;19938;-68
2022/01/18 11:49:08;;;;;;;;;;;20.50;49.70;;;;;;5085136;28;20360;-70
2022/01/18 11:51:45;;;;;;;;;;;20.50;49.70;;;;;;5086230;28;19912;-67
2022/01/18 11:54:35;;;;;;;;;;;20.50;49.70;;;;;;5083271;28;19927;-70
2022/01/18 11:57:02;;;;;;;;;;;20.40;49.60;;;;;;5082390;28;19946;-69
2022/01/18 11:59:35;;;;;;;;;;;20.50;49.70;;;;;;5083982;28;19920;-69
2022/01/18 12:02:03;;;;;;;;;;;20.50;49.70;;;;;;5081799;28;19912;-67
2022/01/18 12:04:40;;;;;;;;;;;20.50;49.70;;;;;;5086472;28;19968;-68
2022/01/18 12:07:06;;;;;;;;;;;20.50;49.80;;;;;;5085968;28;20061;-68
2022/01/18 12:09:38;;;;;;;;;;;20.50;49.70;;;;;;5083052;28;19927;-70
2022/01/18 12:12:09;;;;;;;;;;;20.50;49.70;;;;;;5085683;28;19922;-70
2022/01/18 12:14:34;;;;;;;;;;;20.50;49.70;;;;;;5087833;28;19923;-67
2022/01/18 12:17:13;;;;;;;;;;;20.50;49.60;;;;;;5083133;28;20104;-68
2022/01/18 12:19:44;;;;;;;;;;;20.50;49.60;;;;;;5084460;28;19919;-70
2022/01/18 12:22:09;;;;;;;;;;;20.50;49.60;;;;;;5083377;28;20411;-70
2022/01/18 12:24:35;;;;;;;;;;;20.50;49.60;;;;;;5083473;28;19974;-70
2022/01/18 12:27:20;;;;;;;;;;;20.50;49.60;;;;;;5080691;28;19974;-69
2022/01/18 12:30:14;;;;;;;;;;;20.50;49.60;;;;;;5081145;28;19912;-69
2022/01/18 12:32:56;;;;;;;;;;;20.50;49.60;;;;;;5083158;28;19998;-69
2022/01/18 12:35:23;;;;;;;;;;;20.60;49.60;;;;;;5079872;28;19916;-69
2022/01/18 12:37:49;;;;;;;;;;;20.60;49.50;;;;;;5087554;28;19985;-70
2022/01/18 12:40:22;;;;;;;;;;;20.60;49.60;;;;;;5082376;28;19912;-68
2022/01/18 12:45:33;;;;;;;;;;;20.60;49.50;;;;;;5087922;28;19916;-69
2022/01/18 12:48:00;;;;;;;;;;;20.60;49.50;;;;;;5085885;28;20006;-69
2022/01/18 12:50:30;;;;;;;;;;;20.60;49.50;;;;;;5087153;28;19916;-69
2022/01/18 12:53:06;;;;;;;;;;;20.60;49.50;;;;;;5082280;28;19912;-69
2022/01/18 12:55:45;;;;;;;;;;;20.60;49.50;;;;;;5083267;28;19920;-68
2022/01/18 12:58:13;;;;;;;;;;;20.50;49.50;;;;;;5085316;28;20401;-70
2022/01/18 13:00:42;;;;;;;;;;;20.60;49.50;;;;;;5082772;28;19957;-70
2022/01/18 13:03:08;;;;;;;;;;;20.60;49.50;;;;;;5083733;28;19908;-69
2022/01/18 13:05:38;;;;;;;;;;;20.60;49.50;;;;;;5086716;28;20322;-69
2022/01/18 13:08:04;;;;;;;;;;;20.60;49.50;;;;;;5085514;28;19962;-67
2022/01/18 13:10:33;;;;;;;;;;;20.60;49.50;;;;;;5080090;28;19944;-69
2022/01/18 13:13:00;;;;;;;;;;;20.60;49.60;;;;;;5076428;28;20255;-69
2022/01/18 13:15:39;;;;;;;;;;;20.60;49.60;;;;;;5079188;28;19914;-69
2022/01/18 13:26:33;;;;;;;;;;;20.60;49.60;;;;;;5081913;28;19981;-69
2022/01/18 13:29:09;;;;;;;;;;;20.60;49.60;;;;;;5079945;28;19916;-68
2022/01/18 13:31:34;;;;;;;;;;;20.60;49.60;;;;;;5081415;28;19920;-69
2022/01/18 13:34:01;;;;;;;;;;;20.60;49.60;;;;;;5080337;28;19977;-69
2022/01/18 13:36:29;;;;;;;;;;;20.60;49.60;;;;;;5083288;28;19916;-67
2022/01/18 13:38:55;;;;;;;;;;;20.60;49.60;;;;;;5079516;28;19943;-69
2022/01/18 13:41:21;;;;;;;;;;;20.60;49.60;;;;;;5082708;28;19916;-69
2022/01/18 13:43:47;;;;;;;;;;;20.60;49.60;;;;;;5080139;28;19919;-69
2022/01/18 13:46:22;;;;;;;;;;;20.60;49.60;;;;;;5084298;28;20513;-68
2022/01/18 13:48:48;;;;;;;;;;;20.60;49.60;;;;;;5079819;28;19916;-70
2022/01/18 13:51:14;;;;;;;;;;;20.60;49.60;;;;;;5080320;28;19923;-67
2022/01/18 13:53:40;;;;;;;;;;;20.60;49.60;;;;;;5078054;28;20364;-71
2022/01/18 13:56:14;;;;;;;;;;;20.50;49.60;;;;;;5082037;28;19975;-69
2022/01/18 13:58:41;;;;;;;;;;;20.60;49.60;;;;;;5079925;28;19951;-68
2022/01/18 14:01:14;;;;;;;;;;;20.60;49.60;;;;;;5078707;28;19916;-68
2022/01/18 14:03:40;;;;;;;;;;;20.60;49.60;;;;;;5078940;28;19912;-69
2022/01/18 14:06:06;;;;;;;;;;;20.60;49.60;;;;;;5077419;28;20468;-67
2022/01/18 14:08:33;;;;;;;;;;;20.50;49.60;;;;;;5076613;28;20297;-72
2022/01/18 14:11:02;;;;;;;;;;;20.60;49.60;;;;;;5078486;28;19964;-73
2022/01/18 14:13:29;;;;;;;;;;;20.60;49.80;;;;;;5075462;28;19963;-73
2022/01/18 14:15:55;;;;;;;;;;;20.60;50.30;;;;;;5081040;28;19920;-73
2022/01/18 14:18:20;;;;;;;;;;;20.60;50.60;;;;;;5082549;28;19923;-72
2022/01/18 14:20:46;;;;;;;;;;;20.70;50.80;;;;;;5085326;28;20800;-73
2022/01/18 14:23:19;;;;;;;;;;;20.70;50.90;;;;;;5084797;28;19920;-73
2022/01/18 14:25:46;;;;;;;;;;;20.70;50.90;;;;;;5077532;28;20019;-70
2022/01/18 14:28:14;;;;;;;;;;;20.70;50.90;;;;;;5083898;28;20544;-72
2022/01/18 14:30:43;;;;;;;;;;;20.70;50.90;;;;;;5083883;28;19916;-70
2022/01/18 14:33:09;;;;;;;;;;;20.80;51.20;;;;;;5085253;28;20054;-72
2022/01/18 14:35:39;;;;;;;;;;;20.80;51.30;;;;;;5082401;28;19924;-73
2022/01/18 14:38:06;;;;;;;;;;;20.80;51.50;;;;;;5083046;28;19920;-68
2022/01/18 14:40:40;;;;;;;;;;;20.90;51.60;;;;;;5082898;28;19912;-72
2022/01/18 14:43:26;;;;;;;;;;;21.00;51.80;;;;;;5076658;28;19920;-75
2022/01/18 14:48:25;;;;;;;;;;;21.10;52.10;;;;;;5086845;28;20006;-73
2022/01/18 14:50:50;;;;;;;;;;;21.10;52.20;;;;;;5084766;28;19911;-70
2022/01/18 14:53:17;;;;;;;;;;;21.10;52.20;;;;;;5083072;28;19992;-73
2022/01/18 14:55:43;;;;;;;;;;;21.20;52.40;;;;;;5083617;28;19975;-73
2022/01/18 14:58:08;;;;;;;;;;;21.20;52.40;;;;;;5085616;28;20335;-73
2022/01/18 15:00:34;;;;;;;;;;;21.20;52.30;;;;;;5080002;28;20451;-67
2022/01/18 15:03:00;;;;;;;;;;;21.30;52.40;;;;;;5085791;28;20340;-72
2022/01/18 15:05:27;;;;;;;;;;;21.30;52.50;;;;;;5084698;28;19920;-73
2022/01/18 15:07:53;;;;;;;;;;;21.30;52.50;;;;;;5086621;28;19927;-70
2022/01/18 15:10:20;;;;;;;;;;;21.40;52.60;;;;;;5083426;28;19912;-71
2022/01/18 15:12:47;;;;;;;;;;;21.40;52.50;;;;;;5082606;28;19947;-74
2022/01/18 15:15:14;;;;;;;;;;;21.40;52.40;;;;;;5080440;28;19920;-71
2022/01/18 15:17:40;;;;;;;;;;;21.50;52.40;;;;;;5080503;28;20382;-71
2022/01/18 15:20:06;;;;;;;;;;;21.50;52.80;;;;;;5083629;28;19992;-72
2022/01/18 15:22:32;;;;;;;;;;;21.60;52.80;;;;;;5082335;28;19912;-72
2022/01/18 15:24:57;;;;;;;;;;;21.60;53.00;;;;;;5080356;28;19916;-69
2022/01/18 15:27:23;;;;;;;;;;;21.70;52.50;;;;;;5084253;28;19917;-72
2022/01/18 15:29:49;;;;;;;;;;;21.70;52.30;;;;;;5082525;28;19916;-73
2022/01/18 15:32:14;;;;;;;;;;;21.70;52.50;;;;;;5084579;28;20003;-71
2022/01/18 15:34:41;;;;;;;;;;;21.80;52.70;;;;;;5084041;28;19935;-73
2022/01/18 15:37:06;;;;;;;;;;;21.80;52.70;;;;;;5086675;28;19916;-73
2022/01/18 15:39:32;;;;;;;;;;;21.90;52.90;;;;;;5082735;28;19927;-73
2022/01/18 15:41:58;;;;;;;;;;;21.90;52.80;;;;;;5083551;28;21609;-70
2022/01/18 15:44:23;;;;;;;;;;;21.90;53.00;;;;;;5083061;28;19916;-72
2022/01/18 15:46:49;;;;;;;;;;;22.00;53.20;;;;;;5079733;28;19919;-74
2022/01/18 15:49:14;;;;;;;;;;;22.00;53.00;;;;;;5081547;28;19916;-73
2022/01/18 15:51:40;;;;;;;;;;;22.00;52.90;;;;;;5083786;28;19938;-73